createdAt,value
2023-08-27T00:04:26.223Z,11.00
2023-08-27T00:09:29.752Z,8.30
2023-08-27T00:14:33.337Z,11.35
2023-08-27T00:19:38.378Z,9.75
2023-08-27T00:24:41.980Z,7.88
2023-08-27T00:29:47.353Z,8.35
2023-08-27T00:34:52.514Z,8.40
2023-08-27T00:39:57.028Z,6.47
2023-08-27T00:45:00.646Z,7.32
2023-08-27T00:50:11.013Z,8.30
2023-08-27T00:55:15.520Z,7.63
2023-08-27T01:00:20.245Z,7.50
2023-08-27T01:05:26.354Z,5.45
2023-08-27T01:10:41.375Z,8.35
2023-08-27T01:15:47.827Z,5.88
2023-08-27T01:20:53.122Z,7.82
2023-08-27T01:25:58.313Z,7.97
2023-08-27T01:31:06.005Z,8.15
2023-08-27T01:36:11.912Z,7.07
2023-08-27T01:41:16.849Z,7.03
2023-08-27T01:46:20.733Z,6.18
2023-08-27T01:51:24.504Z,7.22
2023-08-27T01:56:29.423Z,6.43
2023-08-27T02:01:33.027Z,10.77
2023-08-27T02:06:36.620Z,5.75
2023-08-27T02:11:41.556Z,6.93
2023-08-27T02:16:45.246Z,6.07
2023-08-27T02:21:48.781Z,7.22
2023-08-27T02:26:53.714Z,5.72
2023-08-27T02:31:57.265Z,5.95
2023-08-27T02:37:00.879Z,6.35
2023-08-27T02:42:05.881Z,6.78
2023-08-27T02:47:09.472Z,9.07
2023-08-27T02:52:13.035Z,10.05
2023-08-27T02:57:17.962Z,8.90
2023-08-27T03:02:21.562Z,7.65
2023-08-27T03:07:25.349Z,5.63
2023-08-27T03:12:30.385Z,5.93
2023-08-27T03:17:34.026Z,9.60
2023-08-27T03:22:37.658Z,5.47
2023-08-27T03:27:42.590Z,5.78
2023-08-27T03:32:46.169Z,5.13
2023-08-27T03:37:49.951Z,8.98
2023-08-27T03:42:55.018Z,5.30
2023-08-27T03:47:58.655Z,9.43
2023-08-27T03:53:02.301Z,7.00
2023-08-27T03:58:07.584Z,10.13
2023-08-27T04:03:11.177Z,9.73
2023-08-27T04:08:14.743Z,10.80
2023-08-27T04:13:20.226Z,8.32
2023-08-27T04:18:23.924Z,6.88
2023-08-27T04:23:27.763Z,8.90
2023-08-27T04:28:34.192Z,10.18
2023-08-27T04:33:37.805Z,8.30
2023-08-27T04:38:42.572Z,14.30
2023-08-27T04:43:47.534Z,7.15
2023-08-27T04:48:51.097Z,8.00
2023-08-27T04:53:54.689Z,9.23
2023-08-27T04:58:59.643Z,6.45
2023-08-27T05:04:04.757Z,7.20
2023-08-27T05:09:08.316Z,8.40
2023-08-27T05:14:13.253Z,6.30
2023-08-27T05:19:16.828Z,9.63
2023-08-27T05:24:20.863Z,5.78
2023-08-27T05:29:25.774Z,4.90
2023-08-27T05:34:29.385Z,6.60
2023-08-27T05:39:32.950Z,7.32
2023-08-27T05:44:37.919Z,10.00
2023-08-27T05:49:44.370Z,6.68
2023-08-27T05:54:48.080Z,7.70
2023-08-27T05:59:53.062Z,5.97
2023-08-27T06:04:56.627Z,9.40
2023-08-27T06:10:00.515Z,5.22
2023-08-27T06:15:06.683Z,4.90
2023-08-27T06:20:11.140Z,5.78
2023-08-27T06:25:14.786Z,5.88
2023-08-27T06:30:20.348Z,8.43
2023-08-27T06:35:24.533Z,7.75
2023-08-27T06:40:28.129Z,8.05
2023-08-27T06:45:33.136Z,8.60
2023-08-27T06:50:37.349Z,13.93
2023-08-27T06:55:40.963Z,6.78
2023-08-27T07:00:46.508Z,10.57
2023-08-27T07:05:51.243Z,12.27
2023-08-27T07:10:54.788Z,10.07
2023-08-27T07:16:00.795Z,9.18
2023-08-27T07:21:04.515Z,8.60
2023-08-27T07:26:09.388Z,8.90
2023-08-27T07:31:15.187Z,21.63
2023-08-27T07:36:18.828Z,14.00
2023-08-27T07:41:22.778Z,11.85
2023-08-27T07:46:28.955Z,8.80
2023-08-27T07:51:32.790Z,11.88
2023-08-27T07:56:36.552Z,10.07
2023-08-27T08:01:41.597Z,14.80
2023-08-27T08:06:45.187Z,11.45
2023-08-27T08:11:51.333Z,12.27
2023-08-27T08:16:58.321Z,13.88
2023-08-27T08:22:02.014Z,9.60
2023-08-27T08:27:06.012Z,10.82
2023-08-27T08:32:11.038Z,13.15
2023-08-27T08:37:14.614Z,12.10
2023-08-27T08:42:32.093Z,13.00
2023-08-27T08:47:38.052Z,9.85
2023-08-27T08:52:43.151Z,10.85
2023-08-27T08:57:49.747Z,9.38
2023-08-27T09:02:55.335Z,13.60
2023-08-27T09:07:59.729Z,10.82
2023-08-27T09:13:06.885Z,8.95
2023-08-27T09:18:11.957Z,8.88
2023-08-27T09:23:15.581Z,8.88
2023-08-27T09:28:19.982Z,18.45
2023-08-27T09:33:38.114Z,8.38
2023-08-27T09:38:46.105Z,4.68
2023-08-27T09:43:53.840Z,8.45
2023-08-27T09:49:05.854Z,11.07
2023-08-27T09:54:16.830Z,6.72
2023-08-27T09:59:22.272Z,6.32
2023-08-27T10:04:27.307Z,8.77
2023-08-27T10:09:35.444Z,8.00
2023-08-27T10:14:41.316Z,8.35
2023-08-27T10:19:46.390Z,9.10
2023-08-27T10:24:51.561Z,7.35
2023-08-27T10:29:56.206Z,6.60
2023-08-27T10:35:01.744Z,6.25
2023-08-27T10:40:10.055Z,4.78
2023-08-27T10:45:15.896Z,2.50
2023-08-27T10:50:22.688Z,3.15
2023-08-27T10:55:36.210Z,4.03
2023-08-27T11:01:07.202Z,3.67
2023-08-27T11:06:16.527Z,4.10
2023-08-27T11:11:25.343Z,4.88
2023-08-27T11:16:31.723Z,3.97
2023-08-27T11:21:50.742Z,4.68
2023-08-27T11:26:55.528Z,2.75
2023-08-27T11:32:01.686Z,4.22
2023-08-27T11:37:07.253Z,12.38
2023-08-27T11:42:12.532Z,7.82
2023-08-27T11:47:16.480Z,7.75
2023-08-27T11:52:21.421Z,7.95
2023-08-27T11:57:25.169Z,6.00
2023-08-27T12:02:29.196Z,5.43
2023-08-27T12:07:36.985Z,5.75
2023-08-27T12:12:41.786Z,3.85
2023-08-27T12:17:46.173Z,5.38
2023-08-27T12:22:51.139Z,4.95
2023-08-27T12:27:54.772Z,5.88
2023-08-27T12:32:58.387Z,5.22
2023-08-27T12:38:03.368Z,6.88
2023-08-27T12:43:06.952Z,4.95
2023-08-27T12:48:10.579Z,2.67
2023-08-27T12:53:15.561Z,4.57
2023-08-27T12:58:19.075Z,3.17
2023-08-27T13:03:22.629Z,2.30
2023-08-27T13:08:27.633Z,3.40
2023-08-27T13:13:31.753Z,2.85
2023-08-27T13:18:35.269Z,1.70
2023-08-27T13:23:40.208Z,2.05
2023-08-27T13:28:45.400Z,2.75
2023-08-27T13:33:48.928Z,2.60
2023-08-27T13:38:53.817Z,3.60
2023-08-27T13:43:57.827Z,2.17
2023-08-27T13:49:01.723Z,2.85
2023-08-27T13:54:09.984Z,1.58
2023-08-27T13:59:13.606Z,1.17
2023-08-27T14:04:17.160Z,1.58
2023-08-27T14:09:22.367Z,3.00
2023-08-27T14:14:26.131Z,3.15
2023-08-27T14:19:30.051Z,2.85
2023-08-27T14:24:34.956Z,2.78
2023-08-27T14:29:38.808Z,2.63
2023-08-27T14:34:42.332Z,3.45
2023-08-27T14:39:47.825Z,3.65
2023-08-27T14:44:51.454Z,3.55
2023-08-27T14:49:54.990Z,3.17
2023-08-27T14:54:59.953Z,5.15
2023-08-27T15:00:06.506Z,4.88
2023-08-27T15:05:10.317Z,4.70
2023-08-27T15:10:15.313Z,5.35
2023-08-27T15:15:21.317Z,5.32
2023-08-27T15:20:26.578Z,4.43
2023-08-27T15:25:31.464Z,4.22
2023-08-27T15:30:35.055Z,2.80
2023-08-27T15:35:38.940Z,5.25
2023-08-27T15:40:46.575Z,3.67
2023-08-27T15:45:52.757Z,5.30
2023-08-27T15:50:56.563Z,3.55
2023-08-27T15:56:01.537Z,6.55
2023-08-27T16:01:05.226Z,4.63
2023-08-27T16:06:08.977Z,6.82
2023-08-27T16:11:13.960Z,5.30
2023-08-27T16:16:17.623Z,4.53
2023-08-27T16:21:21.218Z,3.55
2023-08-27T16:26:26.193Z,3.97
2023-08-27T16:31:29.797Z,5.43
2023-08-27T16:36:33.351Z,3.70
2023-08-27T16:41:41.074Z,3.30
2023-08-27T16:46:44.644Z,3.38
2023-08-27T16:51:48.281Z,5.93
2023-08-27T16:56:53.405Z,4.20
2023-08-27T17:01:57.096Z,5.57
2023-08-27T17:07:00.703Z,3.20
2023-08-27T17:12:06.317Z,3.78
2023-08-27T17:17:10.278Z,5.25
2023-08-27T17:22:13.864Z,5.43
2023-08-27T17:27:18.804Z,5.30
2023-08-27T17:32:22.324Z,4.72
2023-08-27T17:37:25.875Z,7.53
2023-08-27T17:42:30.802Z,5.13
2023-08-27T17:47:34.823Z,5.80
2023-08-27T17:52:38.449Z,8.93
2023-08-27T17:57:43.451Z,6.22
2023-08-27T18:02:47.048Z,4.80
2023-08-27T18:07:52.893Z,5.97
2023-08-27T18:12:57.793Z,5.63
2023-08-27T18:18:01.610Z,8.93
2023-08-27T18:23:05.594Z,7.13
2023-08-27T18:28:11.130Z,5.22
2023-08-27T18:33:15.798Z,5.78
2023-08-27T18:38:19.386Z,7.20
2023-08-27T18:43:26.048Z,6.22
2023-08-27T18:48:29.622Z,8.15
2023-08-27T18:53:33.148Z,7.43
2023-08-27T18:58:38.062Z,8.43
2023-08-27T19:03:41.676Z,8.25
2023-08-27T19:08:45.198Z,5.97
2023-08-27T19:13:50.252Z,8.60
2023-08-27T19:18:53.896Z,7.03
2023-08-27T19:23:57.491Z,8.68
2023-08-27T19:29:02.473Z,11.13
2023-08-27T19:34:06.207Z,6.35
2023-08-27T19:39:09.773Z,8.00
2023-08-27T19:44:14.691Z,11.77
2023-08-27T19:49:18.315Z,9.05
2023-08-27T19:54:23.332Z,7.30
2023-08-27T19:59:28.224Z,9.00
2023-08-27T20:04:31.843Z,7.93
2023-08-27T20:09:36.342Z,8.38
2023-08-27T20:14:41.252Z,9.15
2023-08-27T20:19:44.849Z,6.80
2023-08-27T20:24:49.112Z,7.72
2023-08-27T20:29:54.024Z,12.88
2023-08-27T20:34:57.582Z,9.98
2023-08-27T20:40:01.179Z,10.45
2023-08-27T20:45:06.921Z,11.23
2023-08-27T20:50:11.233Z,10.82
2023-08-27T20:55:14.892Z,14.13
2023-08-27T21:00:20.026Z,10.32
2023-08-27T21:05:23.581Z,12.65
2023-08-27T21:10:27.225Z,12.80
2023-08-27T21:15:32.198Z,11.73
2023-08-27T21:20:35.868Z,11.05
2023-08-27T21:25:39.897Z,13.20
2023-08-27T21:30:44.832Z,10.05
2023-08-27T21:35:50.355Z,12.75
2023-08-27T21:40:54.577Z,11.70
2023-08-27T21:45:59.719Z,10.38
2023-08-27T21:51:03.464Z,9.70
2023-08-27T21:56:07.008Z,12.18
2023-08-27T22:01:13.345Z,8.93
2023-08-27T22:06:17.091Z,9.10
2023-08-27T22:11:20.631Z,9.40
2023-08-27T22:16:26.676Z,12.68
2023-08-27T22:21:30.197Z,9.02
2023-08-27T22:26:33.911Z,10.55
2023-08-27T22:31:38.841Z,7.15
2023-08-27T22:36:42.378Z,10.15
2023-08-27T22:41:45.887Z,8.50
2023-08-27T22:46:51.022Z,7.80
2023-08-27T22:51:54.604Z,8.70
2023-08-27T22:56:58.158Z,10.60
2023-08-27T23:02:04.082Z,9.43
2023-08-27T23:07:07.743Z,9.80
2023-08-27T23:12:12.269Z,8.75
2023-08-27T23:17:17.196Z,9.52
2023-08-27T23:22:20.759Z,10.68
2023-08-27T23:27:24.307Z,7.57
2023-08-27T23:32:29.213Z,10.38
2023-08-27T23:37:35.441Z,9.10
2023-08-27T23:42:39.020Z,9.43
2023-08-27T23:47:44.546Z,9.65
2023-08-27T23:52:48.176Z,10.25
2023-08-27T23:57:51.766Z,10.05
